Flight Track Log - Related Links

Times and Time Zones

All times are in EDT time to prevent confusion due to time zone crossing. See the SWA3228 flight status page for this flight to view local times or setup timezone preferences in your user account.

Time Position Orientation Groundspeed Altitude Reporting Facility
EDT Latitude Longitude Course Direction KTS MPH feet Rate Location/Type
10:28AM 33.5703 -86.7464 49° Northeast 160 184 1,300  Level Atlanta Center
10:29AM 33.5983 -86.7072 49° Northeast 183 211 3,100 1,747 Climbing Atlanta Center
10:29AM 33.6172 -86.7056 North 214 246 3,600 2,024 Climbing Atlanta Center
10:30AM 33.6706 -86.7469 327° Northwest 214 246 5,900 3,200 Climbing Atlanta Center
10:31AM 33.7319 -86.7989 325° Northwest 234 269 10,000 3,372 Climbing Atlanta Center
10:32AM 33.7997 -86.8511 327° Northwest 265 305 12,700 3,076 Climbing Atlanta Center
10:33AM 33.8803 -86.8939 336° Northwest 293 337 16,100 3,200 Climbing Atlanta Center
10:34AM 33.9744 -86.8744 10° North 329 379 19,100 2,826 Climbing Atlanta Center
10:35AM 34.0708 -86.8650 North 336 387 21,800 2,600 Climbing Atlanta Center
10:36AM 34.1733 -86.8558 North 354 407 24,300 2,350 Climbing Atlanta Center
10:37AM 34.2778 -86.8467 North 364 419 26,500 2,050 Climbing Atlanta Center
10:38AM 34.3844 -86.8378 North 370 426 28,400 1,966 Climbing Atlanta Center
10:39AM 34.5078 -86.8267 North 389 448 30,400 1,800 Climbing Atlanta Center
10:40AM 34.6186 -86.8178 North 394 453 32,000 1,488 Climbing Atlanta Center
10:41AM 34.7294 -86.8089 North 394 453 33,400 1,361 Climbing Atlanta Center
10:42AM 34.8422 -86.7972 North 394 453 34,700 1,050 Climbing Atlanta Center
10:43AM 34.9572 -86.7886 North 400 460 35,500 1,100 Climbing Atlanta Center
10:44AM 35.0744 -86.7772 North 412 474 36,900 957 Climbing Atlanta Center
10:45AM 35.1369 -86.7744 North 411 473 37,000 63 Climbing Memphis Center
10:46AM 35.2556 -86.7642 North 411 473 37,000  Level Memphis Center
10:47AM 35.3700 -86.7542 North 411 473 37,000  Level Memphis Center
10:48AM 35.4825 -86.7442 North 406 467 37,000  Level Memphis Center
10:49AM 35.5947 -86.7367 North 406 467 37,000  Level Memphis Center
10:50AM 35.7111 -86.7239 North 406 467 37,000  Level Memphis Center
10:51AM 35.8256 -86.7139 North 406 467 37,000  Level Memphis Center
10:52AM 35.9417 -86.6933 North 406 467 37,000  Level Memphis Center
10:53AM 36.0506 -86.6319 25° Northeast 412 474 37,000  Level Memphis Center
10:54AM 36.1614 -86.5756 22° Northeast 427 491 37,000 150 Level Memphis Center
10:55AM 36.2742 -86.5186 22° Northeast 432 497 37,300 850 Climbing Memphis Center
10:56AM 36.3872 -86.4644 21° North 432 497 38,700 850 Climbing Memphis Center
10:57AM 36.4836 -86.4158 22° Northeast 427 491 39,000 150 Climbing Memphis Center
10:58AM 36.5925 -86.3614 22° Northeast 422 486 39,000  Level Memphis Center
10:59AM 36.7031 -86.3042 23° Northeast 422 486 39,000  Level Memphis Center
11:01AM 36.9183 -86.1936 22° Northeast 423 487 39,000  Level Indianapolis Center
11:02AM 37.0289 -86.1361 23° Northeast 426 490 39,000  Level Indianapolis Center
11:03AM 37.1406 -86.0792 22° Northeast 428 493 39,000  Level Indianapolis Center
11:04AM 37.2522 -86.0214 22° Northeast 430 495 39,000  Level Indianapolis Center
11:05AM 37.3842 -85.9528 22° Northeast 435 501 39,000  Level Indianapolis Center
11:06AM 37.4972 -85.8922 23° Northeast 437 503 39,000 -390 Level Indianapolis Center
11:07AM 37.6053 -85.8797 North 440 506 38,200 -871 Descending Indianapolis Center
11:08AM 37.7281 -85.8872 357° North 440 506 37,200 -1,065 Descending Indianapolis Center
11:09AM 37.8717 -85.8944 358° North 431 496 36,000 -1,024 Descending Indianapolis Center
11:10AM 37.9875 -85.9014 357° North 419 482 35,100 -968 Descending Indianapolis Center
11:11AM 38.1017 -85.9089 357° North 412 474 34,000 -532 Descending Indianapolis Center
11:12AM 38.2172 -85.9158 357° North 414 476 34,000  Level Indianapolis Center
11:13AM 38.3317 -85.9225 357° North 412 474 34,000  Level Indianapolis Center
11:14AM 38.4483 -85.9297 357° North 418 481 34,000  Level Indianapolis Center
11:15AM 38.5639 -85.9381 357° North 416 479 34,000  Level Indianapolis Center
11:16AM 38.7028 -85.9444 358° North 416 479 34,000 -484 Level Indianapolis Center
11:17AM 38.8192 -85.9525 357° North 418 481 33,000 -1,016 Descending Indianapolis Center
11:18AM 38.9311 -85.9572 358° North 405 466 31,900 -1,024 Descending Indianapolis Center
11:19AM 39.0436 -85.9653 357° North 403 464 30,900 -927 Descending Indianapolis Center
11:20AM 39.1542 -85.9722 357° North 400 460 30,000 -435 Descending Indianapolis Center
11:21AM 39.2644 -85.9786 357° North 396 456 30,000  Level Indianapolis Center
11:22AM 39.3767 -85.9856 357° North 401 461 30,000  Level Indianapolis Center
11:23AM 39.5108 -85.9944 357° North 401 461 30,000 -194 Level Indianapolis Center
11:24AM 39.6236 -86.0014 357° North 405 466 29,600 -1,073 Descending Indianapolis Center
11:25AM 39.7333 -86.0086 357° North 399 459 27,800 -1,805 Descending Indianapolis Center
11:26AM 39.8392 -86.0144 358° North 385 443 25,900 -1,839 Descending Indianapolis Center
11:27AM 39.9411 -86.0211 357° North 372 428 24,000 -919 Descending Indianapolis Center
11:28AM 40.0400 -86.0506 347° North 371 427 24,000 -145 Level Indianapolis Center
11:29AM 40.1389 -86.0889 343° North 367 422 23,700 -732 Descending Indianapolis Center
11:30AM 40.2544 -86.1317 344° North 367 422 22,500 -1,008 Descending Indianapolis Center
11:32AM 40.3544 -86.1683 344° North 358 412 21,500 -909 Descending Chicago Center
11:33AM 40.4500 -86.2047 344° North 357 411 20,500 -968 Descending Chicago Center
11:34AM 40.5456 -86.2419 344° North 358 412 19,500 -976 Descending Chicago Center
11:35AM 40.6397 -86.2769 344° North 352 405 18,500 -1,366 Descending Chicago Center
11:36AM 40.7503 -86.3183 344° North 345 397 16,700 -1,742 Descending Chicago Center
11:37AM 40.8408 -86.3544 343° North 340 391 14,900 -1,694 Descending Chicago Center
11:38AM 40.9294 -86.3878 344° North 333 383 13,200 -1,645 Descending Chicago Center
11:39AM 41.0156 -86.4203 344° North 324 373 11,500 -1,073 Descending Chicago Center
11:40AM 41.0811 -86.5031 316° Northwest 331 381 11,000 -537 Descending Chicago Center
11:41AM 41.1428 -86.5942 312° West 332 382 10,400 -532 Descending Chicago Center
11:42AM 41.2122 -86.6997 311° West 370 426 9,900 -194 Descending Chicago Center
11:43AM 41.2931 -86.8194 312° West 366 421 10,000 -242 Climbing Chicago Center
11:44AM 41.3469 -86.9017 311° West 312 359 9,400 -1,024 Descending Chicago Center
11:45AM 41.3983 -86.9794 311° West 287 330 7,900 -1,415 Descending Chicago Center
11:46AM 41.4492 -87.0581 311° West 283 326 6,500 -919 Descending Chicago Center
11:47AM 41.4986 -87.1317 312° West 274 315 6,000 -319 Descending Chicago Center
11:48AM 41.5167 -87.2000 289° West 278 320 6,000 -391 Level Chicago TRACON
11:49AM 41.5333 -87.3000 283° West 281 323 5,400 -800 Descending Chicago TRACON
11:50AM 41.5500 -87.4000 283° West 281 323 4,400 -894 Descending Chicago TRACON
11:50AM 41.5558 -87.4467 279° West 278 320 4,000 -250 Descending Chicago Center
11:51AM 41.5758 -87.5444 285° West 277 319 4,000 -49 Level Chicago Center
11:52AM 41.5956 -87.6408 285° West 274 315 3,900 -488 Descending Chicago Center
11:53AM 41.6203 -87.7569 286° West 274 315 3,000 -643 Descending Chicago Center
11:54AM 41.6333 -87.7833 304° West 256 295 3,000 -220 Level Chicago TRACON
11:55AM 41.6833 -87.8167 334° Northwest 189 217 2,700 -400 Descending Chicago TRACON
11:56AM 41.7167 -87.8333 340° North 143 165 2,200 -650 Descending Chicago TRACON
11:57AM 41.7500 -87.8000 37° Northeast 127 146 1,400 -800 Descending Chicago TRACON
11:59AM 41.7833 -87.7500 43° Northeast  Level FlightAware Approximate

Login

Don't have an account? Register now (free) for customized features, flight alerts, and more!